ADDS METAR Data INFO
IDs: Format: Raw Decoded Include TAF

Data at: 0943 UTC 25 Jun 2018

K5A6 250935Z AUTO 26004KT 23/21 A2997 RMK AO2 T02270212 PWINO
K5A6 250915Z AUTO 19003KT 23/21 A2994 RMK AO2 T02300212 PWINO
K5A6 250855Z AUTO 19003KT 23/21 A2992 RMK AO2 T02310210 PWINO
K5A6 250835Z AUTO 17006KT 24/21 A2991 RMK AO2 T02350213 PWINO
K5A6 250815Z AUTO 17003KT 24/22 A2991 RMK AO2 T02370218 PWINO
K5A6 250755Z AUTO 16004KT 24/23 A2992 RMK AO2 T02360226 PWINO
K5A6 250735Z AUTO 15006KT 24/23 A2994 RMK AO2 LTG DSNT SE T02350227 PWINO
K5A6 250715Z AUTO 15005KT VCTS 23/23 A2995 RMK AO2 LTG DSNT SE T02310225
K5A6 250655Z AUTO 00000KT 24/22 A2997 RMK AO2 LTG DSNT SE AND S T02360224 PWINO
K5A6 250635Z AUTO 00000KT VCTS 24/22 A2997 RMK AO2 LTG DSNT SE AND S T02350224
K5A6 250615Z AUTO 00000KT SCT047 SCT060 SCT075 25/22 A2999 RMK AO2 LTG DSNT SE AND S T02470217 PWINO
K5A6 250555Z AUTO 00000KT 25/23 A3000 RMK AO2 LTG DSNT S T02510225 10305 20238 403170226 PWINO
K5A6 250535Z AUTO 00000KT 24/24 A3001 RMK AO2 LTG DSNT S T02420242 PWINO
K5A6 250515Z AUTO 00000KT 25/25 A3001 RMK AO2 LTG DSNT S T02460246 PWINO
K5A6 250455Z AUTO 00000KT 25/25 A3001 RMK AO2 LTG DSNT S T02460246 PWINO
K5A6 250435Z AUTO 00000KT 24/24 A3000 RMK AO2 T02400240 PWINO
K5A6 250415Z AUTO 00000KT 24/24 A3001 RMK AO2 LTG DSNT S AND W T02400240 PWINO
K5A6 250355Z AUTO 00000KT 25/25 A3002 RMK AO2 T02450245 PWINO
K5A6 250335Z AUTO 00000KT 24/24 A3001 RMK AO2 T02440244 PWINO
K5A6 250315Z AUTO 00000KT 25/25 A3001 RMK AO2 T02460246 PWINO
K5A6 250255Z AUTO 00000KT 25/25 A3000 RMK AO2 T02500250 PWINO
K5A6 250235Z AUTO 00000KT 25/25 A2999 RMK AO2 T02510251 PWINO
K5A6 250215Z AUTO 00000KT 26/26 A2999 RMK AO2 T02550255 PWINO
K5A6 250155Z AUTO 00000KT 26/26 A2998 RMK AO2 T02600260 PWINO
K5A6 250135Z AUTO 00000KT 27/27 A2998 RMK AO2 T02650265 PWINO
K5A6 250115Z AUTO 00000KT 27/25 A2998 RMK AO2 T02720253 PWINO
K5A6 250055Z AUTO 00000KT CLR 28/25 A2997 RMK AO2 T02830248 PWINO
K5A6 250035Z AUTO 00000KT CLR 30/25 A2996 RMK AO2 T02950246 PWINO
K5A6 250015Z AUTO 00000KT CLR 31/23 A2996 RMK AO2 T03050234 PWINO
K5A6 242355Z AUTO 00000KT CLR 31/24 A2995 RMK AO2 T03050237 10317 20295 PWINO
K5A6 242335Z AUTO 00000KT CLR 31/23 A2995 RMK AO2 T03080231 PWINO
K5A6 242315Z AUTO 00000KT CLR 31/23 A2995 RMK AO2 T03110228 PWINO
K5A6 242255Z AUTO 20003KT CLR 31/23 A2995 RMK AO2 T03110230 PWINO
K5A6 242235Z AUTO 00000KT CLR 31/22 A2996 RMK AO2 T03090224 PWINO
K5A6 242215Z AUTO 20005KT SCT042 SCT048 31/22 A2996 RMK AO2 T03140218 PWINO
K5A6 242155Z AUTO 20005KT SCT040 SCT045 32/23 A2995 RMK AO2 T03150229 PWINO
K5A6 242135Z AUTO 19004KT SCT041 31/23 A2996 RMK AO2 T03140230 PWINO
K5A6 242115Z AUTO 20004KT SCT041 32/23 A2996 RMK AO2 T03170229 PWINO
K5A6 242055Z AUTO 22003KT CLR 31/22 A2996 RMK AO2 T03120224 PWINO
K5A6 242035Z AUTO 23005KT SCT039 SCT047 31/22 A2997 RMK AO2 T03130221 PWINO
K5A6 242015Z AUTO 19005KT SCT040 SCT047 SCT060 31/23 A2997 RMK AO2 T03090231 PWINO
K5A6 241955Z AUTO 24005KT SCT040 SCT050 SCT060 30/23 A2999 RMK AO2 T03020225 PWINO
K5A6 241935Z AUTO 21003KT SCT036 BKN042 BKN055 31/22 A2999 RMK AO2 T03100223 PWINO
K5A6 241915Z AUTO 24004KT BKN034 OVC042 31/23 A3000 RMK AO2 T03050230 PWINO
K5A6 241855Z AUTO 29004KT OVC034 31/24 A3000 RMK AO2 T03090237 PWINO
K5A6 241835Z AUTO 27004KT BKN034 BKN040 30/23 A3001 RMK AO2 T03010231 PWINO
K5A6 241815Z AUTO 24006KT BKN034 BKN042 BKN070 30/23 A3002 RMK AO2 T03040232 PWINO
K5A6 241755Z AUTO 25006KT SCT032 SCT060 30/23 A3004 RMK AO2 T02950228 10300 20239 PWINO
K5A6 241735Z AUTO 26006KT SCT032 SCT046 SCT060 30/23 A3003 RMK AO2 T02990234 PWINO
K5A6 241715Z AUTO 22006KT BKN034 BKN048 30/23 A3004 RMK AO2 T03000231 PWINO
K5A6 241655Z AUTO 26010KT SCT030 SCT036 SCT046 30/23 A3004 RMK AO2 T02960231 PWINO
K5A6 241635Z AUTO 26007KT SCT028 SCT036 SCT042 29/23 A3003 RMK AO2 T02940231 PWINO
K5A6 241615Z AUTO 25008G14KT BKN026 BKN035 OVC042 28/23 A3003 RMK AO2 T02840231 PWINO
K5A6 241555Z AUTO 22005KT BKN026 OVC036 29/23 A3003 RMK AO2 T02890233 PWINO
K5A6 241535Z AUTO 24006KT SCT023 BKN029 BKN035 29/24 A3002 RMK AO2 T02860237 PWINO
K5A6 241515Z AUTO 22006KT SCT021 BKN031 BKN035 28/24 A3002 RMK AO2 T02810237 PWINO
K5A6 241455Z AUTO 23004KT SCT021 BKN029 BKN035 28/24 A3002 RMK AO2 T02760239 PWINO
K5A6 241435Z AUTO 21007KT BKN021 BKN027 28/24 A3002 RMK AO2 T02760238 PWINO
K5A6 241415Z AUTO 22005KT BKN019 27/24 A3002 RMK AO2 T02720238 PWINO
K5A6 241355Z AUTO 22006KT 27/24 A3001 RMK AO2 T02660243 PWINO
K5A6 241335Z AUTO 21004KT BKN012 26/24 A3000 RMK AO2 T02610244 PWINO
K5A6 241315Z AUTO 23006KT BKN012 26/25 A3000 RMK AO2 T02550245 PWINO
K5A6 241255Z AUTO 21007KT 25/25 A2999 RMK AO2 T02540246 PWINO
K5A6 241235Z AUTO 21004KT 25/25 A2999 RMK AO2 T02480245 PWINO
K5A6 241215Z AUTO 20003KT BKN015 24/24 A2999 RMK AO2 T02410241 PWINO
K5A6 241155Z AUTO 00000KT 24/24 A2998 RMK AO2 T02380238 10238 20226 PWINO
K5A6 241135Z AUTO 00000KT 23/23 A2997 RMK AO2 T02310231 PWINO
K5A6 241115Z AUTO 00000KT 23/23 A2996 RMK AO2 T02320232 PWINO
K5A6 241055Z AUTO 00000KT 23/23 A2995 RMK AO2 T02310231 PWINO
K5A6 241035Z AUTO 20003KT 23/23 A2995 RMK AO2 T02330233 PWINO
K5A6 241015Z AUTO 20003KT 24/24 A2995 RMK AO2 T02350235 PWINO
K5A6 240955Z AUTO 20003KT 23/23 A2995 RMK AO2 T02300230 PWINO
K5A6 240935Z AUTO 17003KT 23/23 A2994 RMK AO2 T02300230 PWINO
K5A6 240910Z AUTO 00000KT 23/23 A2994 RMK AO2 T02320232 PWINO
K5A6 240855Z AUTO 19003KT 23/23 A2994 RMK AO2 T02270227 PWINO
K5A6 240835Z AUTO 00000KT 23/23 A2994 RMK AO2 LTG DSNT N T02320232 PWINO
K5A6 240815Z AUTO 00000KT 24/24 A2993 RMK AO2 T02350235 PWINO
K5A6 240755Z AUTO 20003KT 23/23 A2992 RMK AO2 LTG DSNT NW T02330233 PWINO
K5A6 240735Z AUTO 00000KT 23/23 A2992 RMK AO2 T02300230 PWINO
K5A6 240715Z AUTO 00000KT 23/23 A2991 RMK AO2 T02270227 PWINO
K5A6 240655Z AUTO 00000KT 23/23 A2990 RMK AO2 T02300230 PWINO
K5A6 240635Z AUTO 00000KT 23/23 A2990 RMK AO2 LTG DSNT NW T02300230 PWINO
K5A6 240615Z AUTO 00000KT 24/24 A2990 RMK AO2 T02350235 PWINO
K5A6 240555Z AUTO 00000KT 24/24 A2989 RMK AO2 T02380238 10303 20238 403150202 PWINO
K5A6 240535Z AUTO 00000KT 24/24 A2990 RMK AO2 T02380238 PWINO
K5A6 240515Z AUTO 00000KT 24/24 A2990 RMK AO2 T02430243 PWINO
K5A6 240455Z AUTO 00000KT 25/24 A2990 RMK AO2 T02450244 PWINO
K5A6 240435Z AUTO 00000KT 24/24 A2990 RMK AO2 T02420242 PWINO
K5A6 240415Z AUTO 00000KT 24/24 A2990 RMK AO2 T02390239 PWINO
K5A6 240355Z AUTO 00000KT 24/24 A2990 RMK AO2 T02400240 PWINO
K5A6 240335Z AUTO 00000KT 25/25 A2990 RMK AO2 T02450245 PWINO
K5A6 240315Z AUTO 00000KT 25/25 A2989 RMK AO2 T02460246 PWINO
K5A6 240255Z AUTO 00000KT 25/25 A2989 RMK AO2 T02480248 PWINO
K5A6 240235Z AUTO 00000KT 26/26 A2988 RMK AO2 T02550255 PWINO
K5A6 240215Z AUTO 00000KT 26/26 A2988 RMK AO2 T02600257 PWINO
K5A6 240155Z AUTO 00000KT 27/26 A2987 RMK AO2 T02660257 PWINO
K5A6 240135Z AUTO 00000KT 27/26 A2987 RMK AO2 LTG DSNT W T02700259 PWINO
K5A6 240115Z AUTO 00000KT CLR 28/26 A2986 RMK AO2 T02820255 PWINO
K5A6 240055Z AUTO 00000KT SCT030 SCT036 29/26 A2986 RMK AO2 LTG DSNT E T02880260 PWINO
K5A6 240035Z AUTO 00000KT SCT030 30/26 A2986 RMK AO2 T02950258 PWINO
K5A6 240015Z AUTO 00000KT CLR 30/26 A2986 RMK AO2 LTG DSNT E T03000255 PWINO
K5A6 232355Z AUTO 22003KT CLR 30/26 A2985 RMK AO2 T03040255 10315 20291 PWINO
K5A6 232335Z AUTO 25003KT SCT029 SCT037 31/25 A2985 RMK AO2 T03050253 PWINO
K5A6 232315Z AUTO 00000KT SCT029 SCT035 SCT041 31/25 A2985 RMK AO2 T03110250 PWINO
K5A6 232255Z AUTO 21003KT SCT028 SCT035 31/25 A2984 RMK AO2 T03120248 PWINO
K5A6 232235Z AUTO 00000KT SCT028 SCT033 SCT039 31/25 A2984 RMK AO2 T03120254 PWINO
K5A6 232215Z AUTO 22004KT SCT029 BKN039 BKN044 31/26 A2985 RMK AO2 T03140255 PWINO
K5A6 232150Z AUTO 00000KT SCT034 BKN042 BKN050 31/26 A2985 RMK AO2 T03050258 PWINO